createdAt,value
2019-06-20T00:00:50.237Z,14.30
2019-06-20T00:03:25.901Z,15.00
2019-06-20T00:05:59.281Z,17.67
2019-06-20T00:08:32.655Z,22.87
2019-06-20T00:11:08.003Z,22.15
2019-06-20T00:13:42.433Z,22.87
2019-06-20T00:16:16.893Z,19.87
2019-06-20T00:18:50.426Z,18.45
2019-06-20T00:21:27.030Z,17.60
2019-06-20T00:24:02.692Z,15.10
2019-06-20T00:26:38.581Z,14.20
2019-06-20T00:29:14.688Z,14.80
2019-06-20T00:31:48.169Z,16.25
2019-06-20T00:34:21.905Z,16.57
2019-06-20T00:36:55.357Z,17.80
2019-06-20T00:39:28.789Z,16.75
2019-06-20T00:42:02.244Z,17.87
2019-06-20T00:44:35.586Z,17.00
2019-06-20T00:47:10.003Z,16.17
2019-06-20T00:49:45.974Z,16.30
2019-06-20T00:52:21.641Z,13.83
2019-06-20T00:54:56.736Z,13.03
2019-06-20T00:57:30.283Z,13.85
2019-06-20T01:00:06.936Z,15.60
2019-06-20T01:02:44.322Z,15.78
2019-06-20T01:05:17.799Z,16.25
2019-06-20T01:07:58.518Z,15.60
2019-06-20T01:10:29.663Z,15.23
2019-06-20T01:13:04.611Z,15.45
2019-06-20T01:15:41.088Z,15.35
2019-06-20T01:18:14.355Z,13.85
2019-06-20T01:20:50.167Z,13.48
2019-06-20T01:23:28.430Z,13.05
2019-06-20T01:26:08.902Z,11.88
2019-06-20T01:28:44.923Z,12.37
2019-06-20T01:31:18.437Z,12.65
2019-06-20T01:33:51.752Z,12.53
2019-06-20T01:36:25.138Z,11.93
2019-06-20T01:38:58.355Z,12.63
2019-06-20T01:41:31.696Z,12.78
2019-06-20T01:44:05.113Z,12.23
2019-06-20T01:46:38.418Z,12.98
2019-06-20T01:49:12.098Z,13.10
2019-06-20T01:51:45.490Z,13.18
2019-06-20T01:54:18.777Z,13.75
2019-06-20T01:56:52.146Z,17.15
2019-06-20T01:59:25.464Z,14.47
2019-06-20T02:01:58.886Z,13.55
2019-06-20T02:04:32.238Z,14.25
2019-06-20T02:07:06.641Z,14.68
2019-06-20T02:09:40.072Z,15.20
2019-06-20T02:12:13.435Z,14.40
2019-06-20T02:14:46.818Z,15.63
2019-06-20T02:17:20.765Z,15.38
2019-06-20T02:19:54.333Z,15.55
2019-06-20T02:22:27.711Z,15.35
2019-06-20T02:25:00.981Z,16.17
2019-06-20T02:27:34.201Z,16.10
2019-06-20T02:30:07.868Z,14.90
2019-06-20T02:32:43.350Z,17.20
2019-06-20T02:35:19.939Z,16.17
2019-06-20T02:37:55.910Z,18.30
2019-06-20T02:40:31.538Z,17.25
2019-06-20T02:43:06.352Z,17.65
2019-06-20T02:45:40.459Z,17.27
2019-06-20T02:48:16.587Z,16.32
2019-06-20T02:50:53.581Z,16.00
2019-06-20T02:53:28.206Z,14.98
2019-06-20T02:56:02.132Z,15.98
2019-06-20T02:58:39.988Z,16.23
2019-06-20T03:01:16.830Z,17.35
2019-06-20T03:03:54.301Z,16.20
2019-06-20T03:06:41.566Z,16.70
2019-06-20T03:09:07.519Z,17.77
2019-06-20T03:11:43.156Z,17.50
2019-06-20T03:14:18.620Z,16.90
2019-06-20T03:16:58.512Z,14.93
2019-06-20T03:19:32.021Z,18.10
2019-06-20T03:22:06.062Z,18.23
2019-06-20T03:24:42.598Z,19.80
2019-06-20T03:27:17.642Z,18.07
2019-06-20T03:29:52.714Z,19.80
2019-06-20T03:32:29.181Z,18.70
2019-06-20T03:35:02.810Z,17.42
2019-06-20T03:37:40.482Z,16.57
2019-06-20T03:40:16.642Z,16.82
2019-06-20T03:42:50.533Z,16.90
2019-06-20T03:45:33.264Z,16.15
2019-06-20T03:48:07.992Z,16.02
2019-06-20T03:50:44.694Z,15.88
2019-06-20T03:53:21.383Z,17.07
2019-06-20T03:55:56.595Z,18.00
2019-06-20T03:58:35.958Z,16.00
2019-06-20T04:01:09.592Z,16.60
2019-06-20T04:03:44.003Z,16.77
2019-06-20T04:06:36.014Z,16.67
2019-06-20T04:09:02.127Z,16.55
2019-06-20T04:11:38.679Z,16.73
2019-06-20T04:14:13.779Z,17.95
2019-06-20T04:16:49.487Z,18.27
2019-06-20T04:19:24.350Z,16.52
2019-06-20T04:22:04.447Z,16.50
2019-06-20T04:24:41.873Z,14.68
2019-06-20T04:27:16.423Z,14.90
2019-06-20T04:29:55.192Z,14.70
2019-06-20T04:32:30.702Z,14.87
2019-06-20T04:35:06.003Z,14.28
2019-06-20T04:37:39.616Z,14.83
2019-06-20T04:40:14.768Z,16.20
2019-06-20T04:42:50.959Z,15.83
2019-06-20T04:45:58.896Z,14.58
2019-06-20T04:48:33.260Z,14.18
2019-06-20T04:51:10.456Z,14.95
2019-06-20T04:53:43.793Z,14.70
2019-06-20T04:56:17.229Z,14.20
2019-06-20T04:58:50.664Z,12.73
2019-06-20T05:01:24.004Z,13.65
2019-06-20T05:03:58.205Z,12.28
2019-06-20T05:06:31.799Z,12.05
2019-06-20T05:09:06.988Z,13.10
2019-06-20T05:11:40.419Z,12.15
2019-06-20T05:14:13.717Z,11.15
2019-06-20T05:16:51.561Z,10.10
2019-06-20T05:19:25.247Z,10.00
2019-06-20T05:21:58.656Z,8.50
2019-06-20T05:24:32.138Z,7.97
2019-06-20T05:27:05.658Z,8.45
2019-06-20T05:29:40.109Z,7.00
2019-06-20T05:32:21.982Z,6.92
2019-06-20T05:35:08.615Z,6.92
2019-06-20T05:37:42.242Z,6.92
2019-06-20T05:40:16.626Z,6.62
2019-06-20T05:42:50.770Z,7.60
2019-06-20T05:45:24.215Z,6.83
2019-06-20T05:47:57.885Z,7.00
2019-06-20T05:50:33.621Z,6.67
2019-06-20T05:53:08.564Z,6.70
2019-06-20T05:55:42.036Z,7.20
2019-06-20T05:58:19.684Z,7.05
2019-06-20T06:00:53.729Z,7.50
2019-06-20T06:03:29.083Z,7.08
2019-06-20T06:06:05.707Z,6.60
2019-06-20T06:08:42.766Z,6.95
2019-06-20T06:11:16.958Z,6.47
2019-06-20T06:13:53.539Z,6.15
2019-06-20T06:16:31.465Z,6.30
2019-06-20T06:19:06.923Z,6.58
2019-06-20T06:21:41.985Z,7.00
2019-06-20T06:24:21.180Z,6.90
2019-06-20T06:26:53.733Z,6.97
2019-06-20T06:29:33.147Z,6.80
2019-06-20T06:32:09.096Z,6.35
2019-06-20T06:34:45.710Z,6.70
2019-06-20T06:37:19.158Z,6.25
2019-06-20T06:39:55.050Z,6.33
2019-06-20T06:42:29.699Z,5.37
2019-06-20T06:45:03.141Z,6.35
2019-06-20T06:47:46.981Z,5.75
2019-06-20T06:50:26.220Z,5.58
2019-06-20T06:53:01.310Z,6.03
2019-06-20T06:55:35.602Z,5.50
2019-06-20T06:58:09.035Z,6.00
2019-06-20T07:00:45.386Z,6.83
2019-06-20T07:03:19.737Z,5.78
2019-06-20T07:05:57.427Z,5.62
2019-06-20T07:08:32.280Z,5.90
2019-06-20T07:11:06.345Z,5.33
2019-06-20T07:13:44.411Z,6.03
2019-06-20T07:16:18.509Z,5.83
2019-06-20T07:19:01.108Z,5.67
2019-06-20T07:21:34.761Z,5.40
2019-06-20T07:24:09.806Z,5.90
2019-06-20T07:26:44.795Z,6.10
2019-06-20T07:29:18.358Z,5.80
2019-06-20T07:31:53.700Z,5.75
2019-06-20T07:34:40.768Z,6.28
2019-06-20T07:37:10.840Z,6.20
2019-06-20T07:39:53.441Z,5.80
2019-06-20T07:42:33.303Z,5.97
2019-06-20T07:45:11.801Z,6.72
2019-06-20T07:47:55.078Z,6.15
2019-06-20T08:01:35.348Z,5.00
2019-06-20T08:04:09.064Z,4.92
2019-06-20T08:06:43.455Z,4.60
2019-06-20T08:09:16.828Z,5.42
2019-06-20T08:11:50.393Z,5.85
2019-06-20T08:14:23.935Z,4.80
2019-06-20T08:16:58.397Z,4.22
2019-06-20T08:19:32.514Z,4.60
2019-06-20T08:22:09.947Z,4.30
2019-06-20T08:24:44.548Z,5.33
2019-06-20T08:27:19.546Z,4.65
2019-06-20T08:29:52.829Z,4.25
2019-06-20T08:32:26.209Z,4.80
2019-06-20T08:35:00.545Z,4.85
2019-06-20T08:37:34.219Z,5.03
2019-06-20T08:40:08.486Z,4.50
2019-06-20T08:42:42.477Z,4.22
2019-06-20T08:45:17.656Z,4.05
2019-06-20T08:47:50.979Z,4.28
2019-06-20T08:50:24.707Z,4.35
2019-06-20T08:52:58.504Z,4.50
2019-06-20T08:55:32.917Z,3.92
2019-06-20T08:58:06.369Z,4.00
2019-06-20T09:00:41.324Z,3.98
2019-06-20T09:03:14.759Z,3.90
2019-06-20T09:05:48.025Z,3.90
2019-06-20T09:08:21.630Z,4.20
2019-06-20T09:10:55.705Z,3.35
2019-06-20T09:13:29.036Z,3.45
2019-06-20T09:16:03.055Z,3.62
2019-06-20T09:18:36.444Z,3.17
2019-06-20T09:21:09.612Z,3.72
2019-06-20T09:23:43.023Z,3.87
2019-06-20T09:26:16.371Z,3.60
2019-06-20T09:28:51.019Z,3.40
2019-06-20T09:31:24.505Z,3.17
2019-06-20T09:34:03.710Z,3.90
2019-06-20T09:36:35.539Z,3.95
2019-06-20T09:39:09.844Z,4.00
2019-06-20T09:41:43.129Z,3.65
2019-06-20T09:44:16.615Z,4.40
2019-06-20T09:46:51.187Z,4.10
2019-06-20T09:49:25.033Z,3.90
2019-06-20T09:51:58.705Z,4.72
2019-06-20T09:54:32.488Z,4.72
2019-06-20T09:57:06.007Z,4.12
2019-06-20T09:59:40.797Z,3.92
2019-06-20T10:02:14.205Z,5.15
2019-06-20T10:04:49.158Z,4.37
2019-06-20T10:07:22.544Z,4.62
2019-06-20T10:09:56.961Z,4.78
2019-06-20T10:12:30.327Z,5.10
2019-06-20T10:15:03.605Z,4.67
2019-06-20T10:17:36.978Z,5.17
2019-06-20T10:20:11.020Z,4.87
2019-06-20T10:22:45.879Z,4.80
2019-06-20T10:25:23.285Z,4.00
2019-06-20T10:27:57.906Z,4.53
2019-06-20T10:30:31.770Z,4.47
2019-06-20T10:33:05.642Z,4.80
2019-06-20T10:35:39.052Z,4.37
2019-06-20T10:38:12.387Z,5.12
2019-06-20T10:40:46.359Z,4.75
2019-06-20T10:43:20.113Z,4.87
2019-06-20T10:45:53.552Z,5.12
2019-06-20T10:48:26.959Z,4.58
2019-06-20T10:51:19.037Z,4.95
2019-06-20T10:53:53.414Z,5.08
2019-06-20T10:56:26.836Z,5.10
2019-06-20T10:59:00.347Z,4.22
2019-06-20T11:01:35.055Z,4.30
2019-06-20T11:04:10.550Z,4.90
2019-06-20T11:06:47.612Z,3.90
2019-06-20T11:09:24.057Z,4.72
2019-06-20T11:11:58.325Z,4.53
2019-06-20T11:14:34.270Z,4.30
2019-06-20T11:17:07.898Z,4.22
2019-06-20T11:19:41.575Z,3.70
2019-06-20T11:22:15.260Z,3.83
2019-06-20T11:24:50.168Z,4.50
2019-06-20T11:27:24.396Z,4.45
2019-06-20T11:29:57.911Z,4.42
2019-06-20T11:32:31.348Z,4.85
2019-06-20T11:35:05.656Z,4.50
2019-06-20T11:37:39.679Z,4.72
2019-06-20T11:40:16.010Z,5.53
2019-06-20T11:42:49.712Z,5.37
2019-06-20T11:45:24.576Z,5.03
2019-06-20T11:47:59.233Z,4.67
2019-06-20T11:50:35.011Z,5.45
2019-06-20T11:53:09.082Z,5.70
2019-06-20T11:55:42.917Z,5.15
2019-06-20T11:58:16.641Z,6.10
2019-06-20T12:01:03.041Z,5.35
2019-06-20T12:03:26.198Z,5.40
2019-06-20T12:05:59.677Z,5.75
2019-06-20T12:08:34.547Z,5.33
2019-06-20T12:11:08.226Z,5.58
2019-06-20T12:13:42.102Z,5.35
2019-06-20T12:16:15.508Z,5.30
2019-06-20T12:18:49.443Z,5.58
2019-06-20T12:21:22.930Z,5.25
2019-06-20T12:23:56.469Z,5.50
2019-06-20T12:26:29.972Z,6.28
2019-06-20T12:29:03.402Z,5.70
2019-06-20T12:31:36.881Z,5.92
2019-06-20T12:34:10.582Z,5.62
2019-06-20T12:36:44.426Z,5.65
2019-06-20T12:39:17.730Z,6.50
2019-06-20T12:41:51.035Z,6.00
2019-06-20T12:44:26.259Z,6.50
2019-06-20T12:46:59.729Z,6.03
2019-06-20T12:49:33.580Z,5.55
2019-06-20T12:52:06.926Z,6.22
2019-06-20T12:54:43.232Z,6.03
2019-06-20T12:57:16.821Z,6.53
2019-06-20T12:59:50.061Z,5.70
2019-06-20T13:02:23.411Z,5.90
2019-06-20T13:04:57.021Z,5.62
2019-06-20T13:07:30.779Z,6.05
2019-06-20T13:10:04.118Z,5.20
2019-06-20T13:12:40.707Z,5.75
2019-06-20T13:15:13.935Z,5.87
2019-06-20T13:17:48.889Z,5.42
2019-06-20T13:20:23.777Z,5.70
2019-06-20T13:22:58.052Z,5.97
2019-06-20T13:25:35.013Z,5.28
2019-06-20T13:28:10.998Z,4.60
2019-06-20T13:30:48.611Z,5.12
2019-06-20T13:33:19.892Z,5.67
2019-06-20T13:35:55.659Z,5.25
2019-06-20T13:38:29.876Z,5.17
2019-06-20T13:41:06.147Z,4.83
2019-06-20T13:43:39.387Z,8.13
2019-06-20T13:46:12.617Z,7.55
2019-06-20T13:48:47.492Z,12.93
2019-06-20T13:51:20.770Z,5.67
2019-06-20T13:53:53.886Z,5.70
2019-06-20T13:56:27.068Z,4.75
2019-06-20T13:59:01.365Z,5.65
2019-06-20T14:01:34.524Z,5.30
2019-06-20T14:04:07.876Z,4.53
2019-06-20T14:06:42.096Z,5.10
2019-06-20T14:09:16.685Z,5.12
2019-06-20T14:11:51.440Z,5.37
2019-06-20T14:14:24.627Z,6.40
2019-06-20T14:16:58.634Z,5.87
2019-06-20T14:19:31.785Z,7.65
2019-06-20T14:22:06.220Z,8.58
2019-06-20T14:24:39.277Z,6.35
2019-06-20T14:27:12.359Z,17.37
2019-06-20T14:29:46.528Z,17.45
2019-06-20T14:32:22.352Z,14.58
2019-06-20T14:34:54.428Z,23.32
2019-06-20T14:37:27.534Z,17.60
2019-06-20T14:40:00.760Z,15.48
2019-06-20T14:42:34.021Z,10.93
2019-06-20T14:45:07.628Z,5.87
2019-06-20T14:47:40.791Z,5.78
2019-06-20T14:50:15.531Z,5.00
2019-06-20T14:52:50.012Z,4.97
2019-06-20T14:55:29.870Z,5.15
2019-06-20T14:58:03.337Z,5.87
2019-06-20T15:00:36.593Z,5.92
2019-06-20T15:03:09.825Z,6.00
2019-06-20T15:05:44.775Z,6.28
2019-06-20T15:08:18.419Z,5.58
2019-06-20T15:10:51.925Z,6.62
2019-06-20T15:13:26.199Z,8.20
2019-06-20T15:15:59.438Z,7.90
2019-06-20T15:18:32.877Z,7.15
2019-06-20T15:21:06.195Z,8.15
2019-06-20T15:23:39.369Z,6.03
2019-06-20T15:26:12.642Z,6.05
2019-06-20T15:28:47.650Z,5.67
2019-06-20T15:31:21.048Z,5.03
2019-06-20T15:33:55.146Z,5.10
2019-06-20T15:36:28.765Z,5.50
2019-06-20T15:39:01.998Z,5.17
2019-06-20T15:41:36.823Z,9.80
2019-06-20T15:44:10.149Z,5.97
2019-06-20T15:46:43.372Z,6.22
2019-06-20T15:49:16.714Z,6.83
2019-06-20T15:51:49.952Z,7.87
2019-06-20T15:54:24.553Z,10.98
2019-06-20T15:56:57.830Z,7.12
2019-06-20T15:59:31.060Z,5.28
2019-06-20T16:02:04.258Z,4.83
2019-06-20T16:04:37.564Z,4.10
2019-06-20T16:07:11.811Z,4.08
2019-06-20T16:09:45.070Z,4.47
2019-06-20T16:12:18.296Z,5.20
2019-06-20T16:14:51.573Z,4.03
2019-06-20T16:17:24.769Z,4.85
2019-06-20T16:19:57.992Z,5.00
2019-06-20T16:22:31.118Z,4.50
2019-06-20T16:25:04.456Z,4.08
2019-06-20T16:27:37.741Z,5.10
2019-06-20T16:30:11.921Z,4.35
2019-06-20T16:32:45.225Z,6.40
2019-06-20T16:35:19.797Z,6.25
2019-06-20T16:37:53.022Z,6.28
2019-06-20T16:40:44.204Z,6.78
2019-06-20T16:43:17.525Z,6.53
2019-06-20T16:45:50.610Z,6.45
2019-06-20T16:48:23.807Z,6.62
2019-06-20T16:50:56.998Z,6.55
2019-06-20T16:53:30.230Z,6.17
2019-06-20T16:56:03.426Z,6.87
2019-06-20T16:58:36.518Z,7.95
2019-06-20T17:01:09.768Z,6.78
2019-06-20T17:03:42.918Z,7.10
2019-06-20T17:06:16.080Z,7.12
2019-06-20T17:08:50.285Z,6.12
2019-06-20T17:11:23.535Z,5.92
2019-06-20T17:13:56.818Z,5.62
2019-06-20T17:16:29.977Z,5.87
2019-06-20T17:19:03.122Z,5.95
2019-06-20T17:21:37.386Z,6.58
2019-06-20T17:24:10.730Z,5.47
2019-06-20T17:26:43.890Z,5.37
2019-06-20T17:29:17.115Z,5.22
2019-06-20T17:31:50.350Z,4.60
2019-06-20T17:34:23.489Z,4.47
2019-06-20T17:36:56.816Z,4.33
2019-06-20T17:39:29.925Z,3.77
2019-06-20T17:42:03.159Z,3.80
2019-06-20T17:44:36.242Z,3.95
2019-06-20T17:47:09.347Z,3.75
2019-06-20T17:49:42.591Z,9.28
2019-06-20T17:52:15.708Z,8.43
2019-06-20T17:54:48.881Z,7.15
2019-06-20T17:57:22.047Z,5.22
2019-06-20T17:59:55.336Z,4.58
2019-06-20T18:02:28.541Z,4.17
2019-06-20T18:05:03.397Z,3.55
2019-06-20T18:07:36.572Z,3.77
2019-06-20T18:10:10.490Z,4.12
2019-06-20T18:12:43.626Z,3.75
2019-06-20T18:15:17.357Z,4.05
2019-06-20T18:17:50.671Z,5.17
2019-06-20T18:20:25.119Z,4.30
2019-06-20T18:22:58.402Z,3.67
2019-06-20T18:25:31.887Z,3.40
2019-06-20T18:28:05.189Z,3.40
2019-06-20T18:30:44.527Z,3.17
2019-06-20T18:33:17.750Z,3.33
2019-06-20T18:35:51.023Z,3.72
2019-06-20T18:38:24.217Z,3.60
2019-06-20T18:40:58.461Z,4.60
2019-06-20T18:43:31.732Z,4.37
2019-06-20T18:46:04.839Z,4.75
2019-06-20T18:48:37.983Z,5.78
2019-06-20T18:51:11.047Z,6.05
2019-06-20T18:53:44.180Z,5.17
2019-06-20T18:56:17.336Z,4.97
2019-06-20T18:58:50.498Z,5.12
2019-06-20T19:01:23.773Z,6.97
2019-06-20T19:03:57.035Z,6.87
2019-06-20T19:06:35.879Z,6.92
2019-06-20T19:09:08.591Z,6.08
2019-06-20T19:11:42.824Z,5.85
2019-06-20T19:14:16.011Z,5.42
2019-06-20T19:16:49.286Z,5.00
2019-06-20T19:19:22.490Z,5.17
2019-06-20T19:21:55.616Z,4.72
2019-06-20T19:24:28.837Z,5.42
2019-06-20T19:27:01.998Z,5.97
2019-06-20T19:29:35.201Z,6.25
2019-06-20T19:32:09.354Z,5.62
2019-06-20T19:34:43.039Z,5.25
2019-06-20T19:37:16.737Z,5.50
2019-06-20T19:39:52.957Z,4.80
2019-06-20T19:42:28.117Z,5.70
2019-06-20T19:45:04.371Z,5.80
2019-06-20T19:47:37.610Z,5.75
2019-06-20T19:50:11.613Z,5.53
2019-06-20T19:52:44.923Z,6.12
2019-06-20T19:55:18.865Z,5.42
2019-06-20T19:57:51.950Z,5.90
2019-06-20T20:00:25.451Z,5.75
2019-06-20T20:02:59.796Z,6.10
2019-06-20T20:05:33.053Z,5.78
2019-06-20T20:08:06.657Z,6.28
2019-06-20T20:10:46.109Z,6.05
2019-06-20T20:13:19.609Z,6.35
2019-06-20T20:15:52.793Z,6.47
2019-06-20T20:18:28.656Z,8.28
2019-06-20T20:21:03.192Z,8.20
2019-06-20T20:23:36.601Z,8.00
2019-06-20T20:26:09.785Z,7.78
2019-06-20T20:28:43.629Z,7.40
2019-06-20T20:31:16.963Z,7.85
2019-06-20T20:34:19.931Z,7.53
2019-06-20T20:36:54.848Z,12.25
2019-06-20T20:39:29.602Z,15.05
2019-06-20T20:42:03.028Z,13.20
2019-06-20T20:44:37.467Z,9.83
2019-06-20T20:47:10.956Z,8.78
2019-06-20T20:49:44.470Z,9.10
2019-06-20T20:52:18.882Z,8.78
2019-06-20T20:54:54.767Z,7.15
2019-06-20T20:57:33.011Z,7.22
2019-06-20T21:00:09.028Z,6.45
2019-06-20T21:02:43.142Z,6.42
2019-06-20T21:05:16.473Z,6.50
2019-06-20T21:07:49.925Z,7.10
2019-06-20T21:10:24.874Z,7.53
2019-06-20T21:12:58.076Z,7.87
2019-06-20T21:15:31.568Z,8.35
2019-06-20T21:18:04.920Z,7.37
2019-06-20T21:20:38.104Z,7.45
2019-06-20T21:23:11.596Z,7.83
2019-06-20T21:25:44.843Z,7.50
2019-06-20T21:28:18.118Z,8.35
2019-06-20T21:30:51.384Z,8.70
2019-06-20T21:33:25.215Z,8.10
2019-06-20T21:36:08.431Z,8.80
2019-06-20T21:38:33.710Z,7.95
2019-06-20T21:41:07.102Z,7.53
2019-06-20T21:43:40.488Z,7.65
2019-06-20T21:46:13.694Z,7.95
2019-06-20T21:48:46.955Z,7.70
2019-06-20T21:51:20.273Z,8.38
2019-06-20T21:53:53.456Z,7.35
2019-06-20T21:56:26.600Z,7.17
2019-06-20T21:58:59.713Z,8.05
2019-06-20T22:01:33.157Z,9.33
2019-06-20T22:04:07.227Z,10.13
2019-06-20T22:06:40.462Z,9.10
2019-06-20T22:09:14.379Z,8.55
2019-06-20T22:11:47.973Z,8.28
2019-06-20T22:14:22.443Z,7.80
2019-06-20T22:16:55.595Z,7.65
2019-06-20T22:19:28.914Z,8.00
2019-06-20T22:22:02.102Z,7.25
2019-06-20T22:24:35.400Z,7.42
2019-06-20T22:27:08.618Z,7.80
2019-06-20T22:29:41.876Z,7.90
2019-06-20T22:32:15.181Z,8.48
2019-06-20T22:34:48.529Z,8.63
2019-06-20T22:37:21.726Z,7.90
2019-06-20T22:39:54.990Z,7.67
2019-06-20T22:42:28.400Z,7.35
2019-06-20T22:45:01.741Z,7.33
2019-06-20T22:47:36.066Z,7.60
2019-06-20T22:50:10.184Z,8.28
2019-06-20T22:52:43.546Z,8.05
2019-06-20T22:55:17.032Z,8.00
2019-06-20T22:57:50.349Z,7.90
2019-06-20T23:00:23.733Z,7.42
2019-06-20T23:02:57.275Z,7.10
2019-06-20T23:05:30.744Z,7.87
2019-06-20T23:08:04.337Z,8.33
2019-06-20T23:10:37.865Z,8.00
2019-06-20T23:13:11.288Z,8.88
2019-06-20T23:15:44.743Z,8.68
2019-06-20T23:18:17.982Z,9.18
2019-06-20T23:21:03.999Z,9.15
2019-06-20T23:23:26.126Z,8.35
2019-06-20T23:26:01.233Z,8.30
2019-06-20T23:28:34.501Z,8.93
2019-06-20T23:31:07.756Z,8.10
2019-06-20T23:33:40.852Z,8.90
2019-06-20T23:36:14.361Z,9.73
2019-06-20T23:38:47.527Z,9.93
2019-06-20T23:41:21.077Z,9.20
2019-06-20T23:43:54.395Z,8.85
2019-06-20T23:46:27.659Z,9.30
2019-06-20T23:49:00.998Z,9.98
2019-06-20T23:51:36.263Z,9.85
2019-06-20T23:54:09.373Z,10.45
2019-06-20T23:56:42.814Z,9.48
2019-06-20T23:59:16.043Z,8.10
